Time;durP1;ratioP1;P1;durP2;ratioP2;P2;SDS_P1;SDS_P2;PMS_P1;PMS_P2;Temp;Humidity;BMP_temperature;BMP_pressure;BME280_temperature;BME280_humidity;BME280_pressure;Samples;Min_cycle;Max_cycle;Signal;HPM_P1;HPM_P2
2023/04/04 00:02:00;;;;;;;3.70;3.23;;;;;;;;;;6226835;23;20794;-76
2023/04/04 00:04:47;;;;;;;3.47;3.17;;;;;;;;;;6225214;23;20418;-77
2023/04/04 00:07:34;;;;;;;3.33;3.03;;;;;;;;;;6225569;23;20410;-76
2023/04/04 00:10:28;;;;;;;2.90;2.70;;;;;;;;;;6226561;23;20442;-74
2023/04/04 00:16:38;;;;;;;;;;;;;;;;;;;;;
2023/04/04 00:28:24;;;;;;;4.60;3.03;;;;;;;;;;6198933;23;20884;-76
2023/04/04 00:45:47;;;;;;;3.60;3.30;;;;;;;;;;6069912;23;20892;-77
2023/04/04 00:48:27;;;;;;;3.70;3.40;;;;;;;;;;6184629;23;20448;-76
2023/04/04 00:51:04;;;;;;;3.60;3.27;;;;;;;;;;6220338;23;20441;-76
2023/04/04 00:59:21;;;;;;;3.60;3.40;;;;;;;;;;6219202;23;20679;-77
2023/04/04 01:02:06;;;;;;;3.63;3.33;;;;;;;;;;6219431;23;20413;-77
2023/04/04 01:04:50;;;;;;;3.40;3.20;;;;;;;;;;6219948;23;20414;-76
2023/04/04 01:07:40;;;;;;;4.10;3.80;;;;;;;;;;6220145;23;20498;-76
2023/04/04 01:10:33;;;;;;;4.97;4.47;;;;;;;;;;6128388;23;20842;-76
2023/04/04 01:13:12;;;;;;;3.80;3.40;;;;;;;;;;6127269;23;20416;-76
2023/04/04 01:21:55;;;;;;;4.13;3.83;;;;;;;;;;6230156;23;20386;-77
2023/04/04 01:24:54;;;;;;;4.50;4.00;;;;;;;;;;6232390;23;20456;-76
2023/04/04 01:27:49;;;;;;;4.67;3.20;;;;;;;;;;6233916;23;20460;-75
2023/04/04 01:30:50;;;;;;;3.60;3.30;;;;;;;;;;6233091;23;20437;-77
2023/04/04 01:33:47;;;;;;;3.60;3.30;;;;;;;;;;6233308;23;20433;-77
2023/04/04 01:36:23;;;;;;;4.17;3.87;;;;;;;;;;6233747;23;20446;-76
2023/04/04 01:38:58;;;;;;;7.17;3.77;;;;;;;;;;6232966;23;20409;-76
2023/04/04 01:41:48;;;;;;;3.93;3.53;;;;;;;;;;6232463;23;20406;-77
2023/04/04 01:44:41;;;;;;;5.63;3.80;;;;;;;;;;6231557;23;20414;-76
2023/04/04 01:47:20;;;;;;;4.20;3.80;;;;;;;;;;6197709;23;20427;-76
2023/04/04 01:56:14;;;;;;;3.77;3.47;;;;;;;;;;6130983;23;20425;-77
2023/04/04 02:05:01;;;;;;;3.33;3.13;;;;;;;;;;6221711;23;20406;-77
2023/04/04 02:07:49;;;;;;;3.60;3.40;;;;;;;;;;6226154;23;20417;-76
2023/04/04 02:10:51;;;;;;;4.50;3.77;;;;;;;;;;6230588;23;20452;-76
2023/04/04 02:13:46;;;;;;;5.47;3.77;;;;;;;;;;6232685;23;20456;-76
2023/04/04 02:16:58;;;;;;;4.57;3.83;;;;;;;;;;6207503;23;20430;-76
2023/04/04 02:22:33;;;;;;;4.80;3.50;;;;;;;;;;6172481;23;21013;-77
2023/04/04 02:25:15;;;;;;;5.53;3.90;;;;;;;;;;6234184;23;20418;-77
2023/04/04 02:28:02;;;;;;;3.87;3.50;;;;;;;;;;6235173;23;20410;-76
2023/04/04 02:30:52;;;;;;;3.73;3.40;;;;;;;;;;6234798;23;20508;-77
2023/04/04 02:39:09;;;;;;;4.37;3.83;;;;;;;;;;6217610;23;20448;-76
2023/04/04 02:41:47;;;;;;;4.60;4.10;;;;;;;;;;6235240;23;20410;-75
2023/04/04 02:44:36;;;;;;;4.10;3.80;;;;;;;;;;6236280;23;20379;-78
2023/04/04 02:47:13;;;;;;;3.70;3.40;;;;;;;;;;6236183;23;20436;-77
2023/04/04 02:52:53;;;;;;;4.03;3.77;;;;;;;;;;6230686;23;20416;-77
2023/04/04 02:55:44;;;;;;;4.43;4.23;;;;;;;;;;6233434;23;20453;-77
2023/04/04 03:01:42;;;;;;;3.67;3.37;;;;;;;;;;6229550;23;20402;-77
2023/04/04 03:04:20;;;;;;;4.33;3.93;;;;;;;;;;6233327;23;20402;-77
2023/04/04 03:06:51;;;;;;;3.33;3.13;;;;;;;;;;6234938;23;20473;-76
2023/04/04 03:09:33;;;;;;;3.80;3.50;;;;;;;;;;6234769;23;20497;-77
2023/04/04 03:15:01;;;;;;;6.37;3.67;;;;;;;;;;6233070;23;20441;-76
2023/04/04 03:23:59;;;;;;;6.30;3.50;;;;;;;;;;6229498;23;20924;-76
2023/04/04 03:26:59;;;;;;;;;;;;;;;;;;;;;
2023/04/04 03:29:43;;;;;;;5.83;3.70;;;;;;;;;;6233115;23;20414;-76
2023/04/04 03:35:17;;;;;;;5.70;4.03;;;;;;;;;;6207652;23;20505;-75
2023/04/04 03:38:01;;;;;;;4.73;4.00;;;;;;;;;;6226535;23;20726;-78
2023/04/04 03:40:44;;;;;;;6.87;4.37;;;;;;;;;;6220261;23;20480;-76
2023/04/04 03:43:22;;;;;;;4.77;4.17;;;;;;;;;;6221353;23;20418;-76
2023/04/04 03:46:20;;;;;;;4.33;3.93;;;;;;;;;;6220073;23;20927;-77
2023/04/04 03:48:57;;;;;;;4.67;4.03;;;;;;;;;;6217521;23;20957;-76
2023/04/04 03:51:30;;;;;;;5.30;4.33;;;;;;;;;;6217273;23;20835;-77
2023/04/04 03:54:17;;;;;;;4.57;4.17;;;;;;;;;;6227090;23;20906;-77
2023/04/04 04:00:04;;;;;;;4.77;4.37;;;;;;;;;;6219614;23;20387;-76
2023/04/04 04:05:57;;;;;;;5.63;4.67;;;;;;;;;;6216029;23;20469;-76
2023/04/04 04:11:53;;;;;;;6.60;5.10;;;;;;;;;;6215206;23;20766;-75
2023/04/04 04:14:29;;;;;;;5.00;4.60;;;;;;;;;;6218810;23;20414;-76
2023/04/04 04:20:05;;;;;;;5.70;5.20;;;;;;;;;;6215250;23;20402;-77
2023/04/04 04:22:34;;;;;;;4.50;4.20;;;;;;;;;;6220988;23;20433;-77
2023/04/04 04:28:35;;;;;;;7.43;4.73;;;;;;;;;;6219801;23;20390;-77
2023/04/04 04:31:07;;;;;;;6.30;4.40;;;;;;;;;;6222239;23;20469;-77
2023/04/04 04:33:47;;;;;;;5.47;4.97;;;;;;;;;;6221441;23;20429;-78
2023/04/04 04:36:22;;;;;;;5.00;4.43;;;;;;;;;;6222566;23;20476;-76
2023/04/04 04:38:54;;;;;;;5.40;5.00;;;;;;;;;;6223182;23;20416;-78
2023/04/04 04:41:33;;;;;;;4.50;4.10;;;;;;;;;;6225820;23;20752;-76
2023/04/04 04:44:14;;;;;;;4.70;4.40;;;;;;;;;;6226437;23;20414;-76
2023/04/04 04:46:53;;;;;;;5.40;4.90;;;;;;;;;;6228376;23;20444;-78
2023/04/04 04:49:24;;;;;;;5.63;5.23;;;;;;;;;;6228086;23;20919;-77
2023/04/04 04:52:25;;;;;;;;;;;;;;;;;;;;;
2023/04/04 04:55:21;;;;;;;7.27;5.27;;;;;;;;;;6228560;23;20443;-76
2023/04/04 04:58:10;;;;;;;5.83;5.33;;;;;;;;;;6226123;23;20414;-76
2023/04/04 05:00:50;;;;;;;7.33;5.10;;;;;;;;;;6224439;23;20746;-77
2023/04/04 05:03:30;;;;;;;5.57;5.07;;;;;;;;;;6217417;23;20420;-76
2023/04/04 05:05:58;;;;;;;5.10;4.70;;;;;;;;;;6222568;23;20484;-77
2023/04/04 05:08:25;;;;;;;6.40;5.73;;;;;;;;;;6220459;23;20417;-76
2023/04/04 05:10:55;;;;;;;5.13;4.73;;;;;;;;;;6219262;23;20472;-77
2023/04/04 05:13:24;;;;;;;6.03;5.43;;;;;;;;;;6218813;23;20433;-76
2023/04/04 05:15:53;;;;;;;5.77;5.37;;;;;;;;;;6220632;23;20440;-76
2023/04/04 05:18:25;;;;;;;5.33;4.93;;;;;;;;;;6221178;23;20414;-77
2023/04/04 05:20:54;;;;;;;5.70;5.13;;;;;;;;;;6220508;23;20413;-76
2023/04/04 05:23:32;;;;;;;5.70;4.83;;;;;;;;;;6220254;23;20501;-76
2023/04/04 05:28:45;;;;;;;6.30;5.70;;;;;;;;;;6219260;23;20480;-77
2023/04/04 05:31:18;;;;;;;5.93;5.40;;;;;;;;;;6223020;23;20438;-76
2023/04/04 05:33:52;;;;;;;5.80;5.20;;;;;;;;;;6224850;23;20417;-77
2023/04/04 05:36:20;;;;;;;6.40;5.80;;;;;;;;;;6224319;23;20481;-76
2023/04/04 05:38:56;;;;;;;6.27;5.77;;;;;;;;;;6225516;23;20417;-77
2023/04/04 05:41:26;;;;;;;5.73;5.07;;;;;;;;;;6225230;23;20425;-77
2023/04/04 05:44:09;;;;;;;6.27;5.67;;;;;;;;;;6226472;23;20437;-77
2023/04/04 05:52:12;;;;;;;5.00;4.70;;;;;;;;;;6214488;23;20457;-77
2023/04/04 05:55:06;;;;;;;6.10;5.57;;;;;;;;;;6226292;23;20410;-77
2023/04/04 05:57:35;;;;;;;6.00;5.50;;;;;;;;;;6225559;23;20414;-76
2023/04/04 06:00:04;;;;;;;5.80;5.30;;;;;;;;;;6226058;23;20433;-76
2023/04/04 06:02:47;;;;;;;6.50;5.90;;;;;;;;;;6225748;23;20440;-77
2023/04/04 06:05:17;;;;;;;6.43;5.80;;;;;;;;;;6225537;23;20751;-77
2023/04/04 06:07:56;;;;;;;5.87;5.47;;;;;;;;;;6224546;23;20881;-76
2023/04/04 06:10:32;;;;;;;6.77;6.17;;;;;;;;;;6220262;23;20431;-77
2023/04/04 06:13:14;;;;;;;6.70;6.20;;;;;;;;;;6219556;23;20439;-76
2023/04/04 06:15:50;;;;;;;5.57;5.17;;;;;;;;;;6218719;23;20441;-77
2023/04/04 06:21:33;;;;;;;6.03;5.43;;;;;;;;;;6217577;23;20418;-78
2023/04/04 06:24:05;;;;;;;6.80;6.10;;;;;;;;;;6217731;23;20421;-77
2023/04/04 06:26:38;;;;;;;5.87;5.37;;;;;;;;;;6218359;23;20446;-77
2023/04/04 06:29:19;;;;;;;6.17;5.67;;;;;;;;;;6217458;23;20371;-77
2023/04/04 06:32:10;;;;;;;6.87;6.23;;;;;;;;;;6217054;23;20461;-77
2023/04/04 06:34:53;;;;;;;6.63;5.70;;;;;;;;;;6216831;23;20421;-76
2023/04/04 06:37:37;;;;;;;8.83;5.60;;;;;;;;;;6218008;23;20491;-78
2023/04/04 06:40:11;;;;;;;6.93;5.40;;;;;;;;;;6216872;23;20757;-76
2023/04/04 06:42:39;;;;;;;9.50;5.80;;;;;;;;;;6214765;23;20405;-77
2023/04/04 06:45:17;;;;;;;8.33;7.30;;;;;;;;;;6218796;23;20441;-77
2023/04/04 06:47:50;;;;;;;6.30;5.80;;;;;;;;;;6221315;23;20398;-77
2023/04/04 06:53:11;;;;;;;5.80;5.33;;;;;;;;;;6217739;23;20429;-77
2023/04/04 06:55:42;;;;;;;5.50;5.10;;;;;;;;;;6218883;23;20436;-78
2023/04/04 06:58:09;;;;;;;6.20;5.40;;;;;;;;;;6220617;23;20406;-77
2023/04/04 07:00:37;;;;;;;5.43;5.03;;;;;;;;;;6219719;23;20425;-77
2023/04/04 07:03:11;;;;;;;9.53;5.47;;;;;;;;;;6219642;23;20410;-77
2023/04/04 07:05:42;;;;;;;5.03;4.70;;;;;;;;;;6218212;23;20426;-77
2023/04/04 07:08:10;;;;;;;4.47;4.10;;;;;;;;;;6216760;23;20410;-77
2023/04/04 07:10:37;;;;;;;5.70;5.20;;;;;;;;;;6217895;23;20405;-76
2023/04/04 07:13:05;;;;;;;5.77;5.37;;;;;;;;;;6216863;23;20472;-76
2023/04/04 07:15:34;;;;;;;6.13;5.20;;;;;;;;;;6215517;23;21028;-77
2023/04/04 07:18:11;;;;;;;5.97;5.20;;;;;;;;;;6219047;23;20402;-78
2023/04/04 07:20:44;;;;;;;13.30;5.80;;;;;;;;;;6219745;23;20871;-76
2023/04/04 07:23:25;;;;;;;5.50;5.00;;;;;;;;;;6188349;23;20413;-77
2023/04/04 07:28:47;;;;;;;5.40;4.90;;;;;;;;;;6213345;23;20414;-77
2023/04/04 07:31:22;;;;;;;5.43;4.90;;;;;;;;;;6217473;23;20944;-77
2023/04/04 07:33:52;;;;;;;5.07;4.57;;;;;;;;;;6218075;23;20441;-77
2023/04/04 07:36:22;;;;;;;5.90;5.30;;;;;;;;;;6221632;23;20768;-77
2023/04/04 07:38:54;;;;;;;4.73;4.33;;;;;;;;;;6221028;23;20397;-76
2023/04/04 07:41:25;;;;;;;5.17;4.13;;;;;;;;;;6220711;23;20410;-77
2023/04/04 07:44:00;;;;;;;4.70;4.20;;;;;;;;;;6220703;23;20414;-77
2023/04/04 07:46:29;;;;;;;5.67;4.50;;;;;;;;;;6221108;23;20452;-76
2023/04/04 07:49:04;;;;;;;4.77;4.27;;;;;;;;;;6221224;23;21020;-77
2023/04/04 07:51:40;;;;;;;4.33;3.97;;;;;;;;;;6221595;23;20517;-76
2023/04/04 07:54:30;;;;;;;4.67;4.30;;;;;;;;;;6221075;23;20800;-76
2023/04/04 07:57:04;;;;;;;4.10;3.80;;;;;;;;;;6183164;23;20484;-77
2023/04/04 07:59:44;;;;;;;4.47;4.03;;;;;;;;;;6219062;23;20405;-77
2023/04/04 08:02:15;;;;;;;4.57;4.17;;;;;;;;;;6218495;23;20405;-77
2023/04/04 08:04:52;;;;;;;4.60;4.20;;;;;;;;;;6222558;23;20460;-76
2023/04/04 08:07:24;;;;;;;4.27;3.90;;;;;;;;;;6222770;23;20426;-77
2023/04/04 08:09:55;;;;;;;4.63;4.10;;;;;;;;;;6219910;23;20436;-78
2023/04/04 08:12:27;;;;;;;3.93;3.60;;;;;;;;;;6218234;23;20438;-76
2023/04/04 08:15:04;;;;;;;4.60;3.90;;;;;;;;;;6219063;23;20409;-77
2023/04/04 08:17:43;;;;;;;4.40;4.00;;;;;;;;;;6219185;23;20501;-77
2023/04/04 08:20:14;;;;;;;5.97;4.77;;;;;;;;;;6220573;23;20415;-77
2023/04/04 08:22:52;;;;;;;6.10;4.20;;;;;;;;;;6219721;23;20379;-75
2023/04/04 08:25:21;;;;;;;4.30;3.90;;;;;;;;;;6219046;23;20461;-75
2023/04/04 08:28:00;;;;;;;4.60;4.20;;;;;;;;;;6219165;23;20397;-76
2023/04/04 08:30:28;;;;;;;4.07;3.67;;;;;;;;;;6219375;23;20390;-75
2023/04/04 08:32:56;;;;;;;4.07;3.77;;;;;;;;;;6216979;23;20473;-77
2023/04/04 08:38:33;;;;;;;4.87;3.93;;;;;;;;;;6202506;23;20759;-77
2023/04/04 08:41:04;;;;;;;4.77;4.30;;;;;;;;;;6218407;23;20417;-77
2023/04/04 08:43:37;;;;;;;6.10;3.90;;;;;;;;;;6220231;23;20904;-76
2023/04/04 08:46:07;;;;;;;5.70;4.40;;;;;;;;;;6220163;23;20430;-77
2023/04/04 08:58:09;;;;;;;5.93;3.63;;;;;;;;;;6065230;23;20426;-75
2023/04/04 09:06:40;;;;;;;4.20;3.80;;;;;;;;;;6137563;23;20432;-76
2023/04/04 09:09:31;;;;;;;5.40;3.90;;;;;;;;;;6214552;23;20402;-77
2023/04/04 09:12:07;;;;;;;4.67;3.87;;;;;;;;;;6214236;23;20496;-77
2023/04/04 09:14:38;;;;;;;3.60;3.40;;;;;;;;;;6213363;23;20406;-77
2023/04/04 09:17:17;;;;;;;5.00;3.97;;;;;;;;;;6213298;23;20438;-77
2023/04/04 09:19:53;;;;;;;3.70;3.30;;;;;;;;;;6214292;23;20496;-77
2023/04/04 09:22:26;;;;;;;4.20;3.80;;;;;;;;;;6214627;23;20416;-77
2023/04/04 09:25:01;;;;;;;3.87;3.57;;;;;;;;;;6213874;23;20413;-76
2023/04/04 09:27:34;;;;;;;3.80;3.47;;;;;;;;;;6214144;23;20420;-76
2023/04/04 09:30:05;;;;;;;3.97;3.67;;;;;;;;;;6213537;23;20410;-76
2023/04/04 09:32:42;;;;;;;4.30;3.90;;;;;;;;;;6213249;23;20441;-77
2023/04/04 09:35:17;;;;;;;4.17;3.87;;;;;;;;;;6213803;23;20433;-76
2023/04/04 09:37:45;;;;;;;3.77;3.57;;;;;;;;;;6213315;23;20974;-77
2023/04/04 09:40:14;;;;;;;4.30;4.00;;;;;;;;;;6212584;23;20442;-77
2023/04/04 09:42:42;;;;;;;4.33;3.70;;;;;;;;;;6213685;23;20465;-77
2023/04/04 09:47:58;;;;;;;5.83;3.57;;;;;;;;;;6188013;23;20783;-77
2023/04/04 09:50:35;;;;;;;4.30;3.90;;;;;;;;;;6215555;23;20497;-77
2023/04/04 09:53:20;;;;;;;3.20;3.10;;;;;;;;;;6216831;23;20437;-77
2023/04/04 09:56:01;;;;;;;4.30;3.97;;;;;;;;;;6217429;23;21154;-76
2023/04/04 09:58:35;;;;;;;4.00;3.70;;;;;;;;;;6216656;23;20753;-75
2023/04/04 10:01:10;;;;;;;3.73;3.43;;;;;;;;;;6217732;23;20406;-77
2023/04/04 10:07:02;;;;;;;4.17;3.87;;;;;;;;;;5071517;28;20882;-76
2023/04/04 10:09:40;;;;;;;4.73;3.70;;;;;;;;;;5073001;28;20435;-79
2023/04/04 10:12:17;;;;;;;4.60;4.27;;;;;;;;;;5073692;28;20480;-80
2023/04/04 10:14:53;;;;;;;3.40;3.20;;;;;;;;;;5077269;28;20459;-76
2023/04/04 10:20:37;;;;;;;7.70;6.23;;;;;;;;;;5016496;28;20840;-77
2023/04/04 10:23:08;;;;;;;7.87;7.13;;;;;;;;;;5013314;28;20474;-76
2023/04/04 10:25:38;;;;;;;4.63;3.90;;;;;;;;;;5011493;28;20487;-76
2023/04/04 10:28:07;;;;;;;5.57;3.80;;;;;;;;;;4993893;28;20538;-78
2023/04/04 10:30:39;;;;;;;4.20;3.80;;;;;;;;;;4997155;28;20480;-76
2023/04/04 10:33:14;;;;;;;4.10;3.53;;;;;;;;;;5053989;28;20442;-76
2023/04/04 10:35:45;;;;;;;3.60;3.30;;;;;;;;;;5053780;28;20446;-77
2023/04/04 10:38:18;;;;;;;3.70;3.50;;;;;;;;;;5055126;28;20537;-77
2023/04/04 10:41:01;;;;;;;4.00;3.60;;;;;;;;;;5054882;28;20476;-76
2023/04/04 10:43:36;;;;;;;4.20;3.80;;;;;;;;;;5053331;28;20458;-76
2023/04/04 10:46:18;;;;;;;4.80;4.03;;;;;;;;;;5061858;28;20558;-78
2023/04/04 10:48:47;;;;;;;3.87;3.57;;;;;;;;;;5073449;28;20510;-77
2023/04/04 10:51:17;;;;;;;4.07;3.77;;;;;;;;;;5074487;28;20457;-76
2023/04/04 10:54:01;;;;;;;4.07;3.77;;;;;;;;;;5075580;28;20483;-77
2023/04/04 10:56:48;;;;;;;4.77;3.80;;;;;;;;;;5074866;28;20484;-76
2023/04/04 11:05:40;;;;;;;3.70;3.40;;;;;;;;;;5040151;28;20487;-78
2023/04/04 11:08:12;;;;;;;4.20;3.80;;;;;;;;;;5074617;28;20947;-79
2023/04/04 11:10:48;;;;;;;3.93;3.63;;;;;;;;;;5077044;28;20506;-77
2023/04/04 11:13:28;;;;;;;4.20;3.80;;;;;;;;;;5076098;28;20436;-77
2023/04/04 11:16:00;;;;;;;4.20;3.80;;;;;;;;;;5072629;28;20485;-76
2023/04/04 11:18:47;;;;;;;3.67;3.37;;;;;;;;;;5050524;28;20443;-76
2023/04/04 11:24:19;;;;;;;5.20;3.93;;;;;;;;;;5068184;28;20453;-77
2023/04/04 11:27:06;;;;;;;5.20;3.93;;;;;;;;;;5067030;28;20504;-78
2023/04/04 11:29:52;;;;;;;4.30;3.97;;;;;;;;;;5071467;28;20442;-77
2023/04/04 11:32:57;;;;;;;3.90;3.60;;;;;;;;;;5067165;28;20442;-76
2023/04/04 11:35:45;;;;;;;4.20;3.80;;;;;;;;;;4995573;28;20485;-77
2023/04/04 11:38:20;;;;;;;3.80;3.60;;;;;;;;;;5010764;28;20453;-77
2023/04/04 11:40:53;;;;;;;3.97;3.67;;;;;;;;;;5012470;28;20444;-77
2023/04/04 11:43:21;;;;;;;3.70;3.40;;;;;;;;;;5028854;28;20518;-77
2023/04/04 11:46:07;;;;;;;3.77;3.47;;;;;;;;;;5049504;28;20517;-77
2023/04/04 11:48:43;;;;;;;3.43;3.13;;;;;;;;;;5050280;28;20443;-77
2023/04/04 11:51:24;;;;;;;3.80;3.50;;;;;;;;;;5058904;28;20469;-77
2023/04/04 11:53:52;;;;;;;4.40;4.00;;;;;;;;;;5049889;28;20450;-77
2023/04/04 11:56:20;;;;;;;3.90;3.60;;;;;;;;;;5065723;28;20461;-78
2023/04/04 11:58:53;;;;;;;3.57;3.20;;;;;;;;;;5067470;28;20438;-76
2023/04/04 12:01:31;;;;;;;3.50;3.20;;;;;;;;;;5067774;28;20556;-77
2023/04/04 12:04:04;;;;;;;3.70;3.40;;;;;;;;;;5064977;28;20449;-78
2023/04/04 12:06:39;;;;;;;3.70;3.50;;;;;;;;;;5056521;28;21005;-76
2023/04/04 12:09:11;;;;;;;4.37;3.97;;;;;;;;;;5055899;28;20445;-78
2023/04/04 12:11:57;;;;;;;4.00;3.60;;;;;;;;;;5058615;28;20467;-77
2023/04/04 12:14:34;;;;;;;3.90;3.60;;;;;;;;;;5060060;28;20855;-78
2023/04/04 12:17:04;;;;;;;4.47;3.20;;;;;;;;;;5060381;28;20481;-77
2023/04/04 12:22:37;;;;;;;4.30;3.80;;;;;;;;;;5054644;28;20445;-78
2023/04/04 12:25:08;;;;;;;3.67;3.37;;;;;;;;;;5057078;28;20465;-77
2023/04/04 12:27:52;;;;;;;4.27;3.97;;;;;;;;;;5063881;28;20446;-80
2023/04/04 12:30:31;;;;;;;3.93;3.50;;;;;;;;;;5067535;28;20557;-79
2023/04/04 12:33:03;;;;;;;3.93;3.63;;;;;;;;;;5067305;28;20445;-77
2023/04/04 12:35:31;;;;;;;4.13;3.83;;;;;;;;;;5064714;28;20484;-78
2023/04/04 12:38:10;;;;;;;3.90;3.60;;;;;;;;;;5067655;28;20461;-78
2023/04/04 12:40:41;;;;;;;3.97;3.67;;;;;;;;;;5053258;28;20491;-76
2023/04/04 12:43:19;;;;;;;3.93;3.60;;;;;;;;;;5068945;28;20513;-78
2023/04/04 12:45:52;;;;;;;3.70;3.40;;;;;;;;;;5049634;28;20569;-78
2023/04/04 12:48:41;;;;;;;5.03;3.53;;;;;;;;;;5065855;28;20441;-77
2023/04/04 12:51:11;;;;;;;3.97;3.60;;;;;;;;;;5066750;28;20833;-77
2023/04/04 12:53:57;;;;;;;3.97;3.67;;;;;;;;;;5043410;28;20481;-75
2023/04/04 13:04:51;;;;;;;3.30;3.00;;;;;;;;;;5035083;28;20497;-78
2023/04/04 13:07:41;;;;;;;3.90;3.50;;;;;;;;;;5045786;28;20952;-78
2023/04/04 13:10:43;;;;;;;3.80;3.50;;;;;;;;;;5050125;28;20442;-77
2023/04/04 13:13:42;;;;;;;;;;;;;;;;;;;;;
2023/04/04 13:16:36;;;;;;;5.03;3.10;;;;;;;;;;5052087;28;20459;-79
2023/04/04 13:22:24;;;;;;;4.00;3.67;;;;;;;;;;5069361;28;20499;-77
2023/04/04 13:25:26;;;;;;;3.53;3.23;;;;;;;;;;5068677;28;20468;-76
2023/04/04 13:28:02;;;;;;;4.17;3.80;;;;;;;;;;5067559;28;20517;-78
2023/04/04 13:30:33;;;;;;;5.70;4.20;;;;;;;;;;5066837;28;20492;-77
2023/04/04 13:36:09;;;;;;;3.63;3.33;;;;;;;;;;5072918;28;20560;-79
2023/04/04 13:38:57;;;;;;;4.40;3.80;;;;;;;;;;5069988;28;20438;-77
2023/04/04 13:41:36;;;;;;;3.87;3.57;;;;;;;;;;5062031;28;20785;-77
2023/04/04 13:44:08;;;;;;;3.37;3.13;;;;;;;;;;5052131;28;20469;-77
2023/04/04 13:46:39;;;;;;;4.00;3.40;;;;;;;;;;5061088;28;20501;-76
2023/04/04 13:49:12;;;;;;;4.20;3.80;;;;;;;;;;5045124;28;20454;-75
2023/04/04 13:51:44;;;;;;;4.53;3.30;;;;;;;;;;5045934;28;20458;-76
2023/04/04 13:54:24;;;;;;;3.90;3.60;;;;;;;;;;5047232;28;20458;-78
2023/04/04 13:56:54;;;;;;;3.53;3.23;;;;;;;;;;5046292;28;20492;-77
2023/04/04 13:59:27;;;;;;;3.43;3.13;;;;;;;;;;5044728;28;20458;-77
2023/04/04 14:02:11;;;;;;;4.23;3.87;;;;;;;;;;5044573;28;20431;-76
2023/04/04 14:04:45;;;;;;;3.83;3.53;;;;;;;;;;5043895;28;20561;-77
2023/04/04 14:07:19;;;;;;;3.50;3.20;;;;;;;;;;5037063;28;20480;-76
2023/04/04 14:09:50;;;;;;;3.13;2.90;;;;;;;;;;5035681;28;20485;-78
2023/04/04 14:12:26;;;;;;;4.50;3.20;;;;;;;;;;5035932;28;20485;-77
2023/04/04 14:15:01;;;;;;;4.37;3.30;;;;;;;;;;5035479;28;20454;-77
2023/04/04 14:17:28;;;;;;;4.20;3.90;;;;;;;;;;5036166;28;20458;-77
2023/04/04 14:19:57;;;;;;;3.43;3.13;;;;;;;;;;5051895;28;20973;-77
2023/04/04 14:22:25;;;;;;;4.43;3.70;;;;;;;;;;5047986;28;20663;-79
2023/04/04 14:24:53;;;;;;;5.20;4.00;;;;;;;;;;5033045;28;20512;-77
2023/04/04 14:27:20;;;;;;;3.90;3.50;;;;;;;;;;5034258;28;20474;-77
2023/04/04 14:29:47;;;;;;;4.10;3.70;;;;;;;;;;5033121;28;20477;-77
2023/04/04 14:32:15;;;;;;;3.83;3.53;;;;;;;;;;5031855;28;20564;-77
2023/04/04 14:34:43;;;;;;;3.83;3.53;;;;;;;;;;5033636;28;20803;-77
2023/04/04 14:37:12;;;;;;;4.90;3.80;;;;;;;;;;5049675;28;20878;-77
2023/04/04 14:39:40;;;;;;;3.83;3.47;;;;;;;;;;5041746;28;20485;-78
2023/04/04 14:42:08;;;;;;;4.17;3.73;;;;;;;;;;5036283;28;20446;-79
2023/04/04 14:44:35;;;;;;;3.70;3.47;;;;;;;;;;5036347;28;20972;-78
2023/04/04 14:47:03;;;;;;;3.90;3.60;;;;;;;;;;5035289;28;20578;-78
2023/04/04 14:49:31;;;;;;;5.90;4.23;;;;;;;;;;5035851;28;20462;-78
2023/04/04 14:52:00;;;;;;;4.37;3.97;;;;;;;;;;5035505;28;20469;-77
2023/04/04 14:54:29;;;;;;;4.93;3.83;;;;;;;;;;5037766;28;20972;-77
2023/04/04 14:56:56;;;;;;;5.00;3.87;;;;;;;;;;5038797;28;20794;-77
2023/04/04 14:59:27;;;;;;;4.13;3.73;;;;;;;;;;5038869;28;20477;-78
2023/04/04 15:01:54;;;;;;;7.13;4.43;;;;;;;;;;5038035;28;20453;-78
2023/04/04 15:04:22;;;;;;;3.90;3.60;;;;;;;;;;5038324;28;20446;-77
2023/04/04 15:06:49;;;;;;;3.23;3.03;;;;;;;;;;5037399;28;21048;-78
2023/04/04 15:09:17;;;;;;;3.80;3.50;;;;;;;;;;5037641;28;20434;-79
2023/04/04 15:11:48;;;;;;;3.60;3.30;;;;;;;;;;5038142;28;20442;-79
2023/04/04 15:14:16;;;;;;;4.37;3.50;;;;;;;;;;5037872;28;20629;-78
2023/04/04 15:16:44;;;;;;;3.40;3.20;;;;;;;;;;5037318;28;20450;-78
2023/04/04 15:19:12;;;;;;;3.80;3.50;;;;;;;;;;5057802;28;20548;-78
2023/04/04 15:21:40;;;;;;;4.17;3.80;;;;;;;;;;5057887;28;20449;-78
2023/04/04 15:24:09;;;;;;;4.40;4.10;;;;;;;;;;5057649;28;20469;-78
2023/04/04 15:26:39;;;;;;;3.67;3.37;;;;;;;;;;5058320;28;20580;-77
2023/04/04 15:29:08;;;;;;;4.23;3.83;;;;;;;;;;5059381;28;21145;-78
2023/04/04 15:31:35;;;;;;;3.90;3.70;;;;;;;;;;5058011;28;20925;-78
2023/04/04 15:34:03;;;;;;;4.70;4.20;;;;;;;;;;5056609;28;20483;-78
2023/04/04 15:36:32;;;;;;;4.60;4.20;;;;;;;;;;5056162;28;20477;-77
2023/04/04 15:39:01;;;;;;;4.90;4.50;;;;;;;;;;5056605;28;21024;-77
2023/04/04 15:41:29;;;;;;;4.33;3.93;;;;;;;;;;5057204;28;20467;-78
2023/04/04 15:43:57;;;;;;;4.23;3.93;;;;;;;;;;5056801;28;20532;-77
2023/04/04 15:46:27;;;;;;;4.80;4.40;;;;;;;;;;5057092;28;20973;-76
2023/04/04 15:48:55;;;;;;;4.77;4.33;;;;;;;;;;5056809;28;20473;-78
2023/04/04 15:51:22;;;;;;;4.47;4.07;;;;;;;;;;5055889;28;20445;-77
2023/04/04 15:53:51;;;;;;;5.23;4.73;;;;;;;;;;5055340;28;20449;-78
2023/04/04 15:56:18;;;;;;;4.20;3.90;;;;;;;;;;5056252;28;20515;-77
2023/04/04 15:58:45;;;;;;;4.10;3.80;;;;;;;;;;5056273;28;20450;-77
2023/04/04 16:01:12;;;;;;;4.47;4.07;;;;;;;;;;5058482;28;20457;-79
2023/04/04 16:03:42;;;;;;;4.30;3.90;;;;;;;;;;5056167;28;20457;-78
2023/04/04 16:06:11;;;;;;;4.53;4.23;;;;;;;;;;5057440;28;20834;-77
2023/04/04 16:08:39;;;;;;;4.37;4.07;;;;;;;;;;5057731;28;20441;-78
2023/04/04 16:11:09;;;;;;;4.97;4.00;;;;;;;;;;5057099;28;20445;-78
2023/04/04 16:13:37;;;;;;;5.03;4.50;;;;;;;;;;5056803;28;21012;-78
2023/04/04 16:16:04;;;;;;;3.63;3.33;;;;;;;;;;5056646;28;20469;-77
2023/04/04 16:18:32;;;;;;;4.70;4.30;;;;;;;;;;5040185;28;20874;-80
2023/04/04 16:21:05;;;;;;;4.30;4.00;;;;;;;;;;5033976;28;20473;-78
2023/04/04 16:23:46;;;;;;;4.33;4.00;;;;;;;;;;5035321;28;20516;-77
2023/04/04 16:26:45;;;;;;;4.27;3.90;;;;;;;;;;5035383;28;20482;-77
2023/04/04 16:29:23;;;;;;;5.00;4.50;;;;;;;;;;5035159;28;20808;-77
2023/04/04 16:32:11;;;;;;;4.40;4.00;;;;;;;;;;5035284;28;20454;-77
2023/04/04 16:34:53;;;;;;;4.63;4.27;;;;;;;;;;5036211;28;20486;-76
2023/04/04 16:37:33;;;;;;;4.40;4.00;;;;;;;;;;5035475;28;20441;-79
2023/04/04 16:40:02;;;;;;;7.63;4.13;;;;;;;;;;5035829;28;20463;-76
2023/04/04 16:42:33;;;;;;;4.50;4.10;;;;;;;;;;5039026;28;20521;-78
2023/04/04 16:45:01;;;;;;;4.50;4.13;;;;;;;;;;5040224;28;20447;-76
2023/04/04 16:47:45;;;;;;;4.33;3.93;;;;;;;;;;5044815;28;20470;-79
2023/04/04 16:50:14;;;;;;;4.80;4.40;;;;;;;;;;5045438;28;20458;-77
2023/04/04 16:52:42;;;;;;;4.40;4.00;;;;;;;;;;5045056;28;20445;-77
2023/04/04 16:55:10;;;;;;;4.83;4.47;;;;;;;;;;5043180;28;20473;-78
2023/04/04 16:57:41;;;;;;;4.97;4.57;;;;;;;;;;5041134;28;20965;-77
2023/04/04 17:00:09;;;;;;;4.50;4.17;;;;;;;;;;5043431;28;20527;-77
2023/04/04 17:02:43;;;;;;;4.73;4.33;;;;;;;;;;5042372;28;20448;-78
2023/04/04 17:05:42;;;;;;;5.67;4.40;;;;;;;;;;5041523;28;20482;-78
2023/04/04 17:08:12;;;;;;;4.00;3.70;;;;;;;;;;5039545;28;20481;-78
2023/04/04 17:10:46;;;;;;;4.77;4.37;;;;;;;;;;5041492;28;20431;-78
2023/04/04 17:13:15;;;;;;;5.33;4.80;;;;;;;;;;5047663;28;20829;-77
2023/04/04 17:15:45;;;;;;;5.20;4.80;;;;;;;;;;5045903;28;20466;-78
2023/04/04 17:18:18;;;;;;;7.07;4.70;;;;;;;;;;5056282;28;20433;-79
2023/04/04 17:20:56;;;;;;;4.83;4.43;;;;;;;;;;5063766;28;20450;-78
2023/04/04 17:23:36;;;;;;;6.63;4.60;;;;;;;;;;5064407;28;20449;-78
2023/04/04 17:26:41;;;;;;;5.20;4.80;;;;;;;;;;5063614;28;20477;-79
2023/04/04 17:29:12;;;;;;;5.10;4.70;;;;;;;;;;5063929;28;20448;-77
2023/04/04 17:31:40;;;;;;;5.50;4.17;;;;;;;;;;5057641;28;20969;-78
2023/04/04 17:34:09;;;;;;;4.27;3.97;;;;;;;;;;5055142;28;20875;-78
2023/04/04 17:36:37;;;;;;;5.77;4.60;;;;;;;;;;5054833;28;20466;-77
2023/04/04 17:39:07;;;;;;;5.10;4.70;;;;;;;;;;5057913;28;20466;-79
2023/04/04 17:41:35;;;;;;;4.87;4.23;;;;;;;;;;5059916;28;20461;-79
2023/04/04 17:44:02;;;;;;;5.47;4.97;;;;;;;;;;5056995;28;20449;-78
2023/04/04 17:46:30;;;;;;;5.53;4.97;;;;;;;;;;5056655;28;20458;-77
2023/04/04 17:48:58;;;;;;;4.70;4.30;;;;;;;;;;5056577;28;20461;-78
2023/04/04 17:51:26;;;;;;;5.40;4.90;;;;;;;;;;5056794;28;20453;-80
2023/04/04 17:53:53;;;;;;;5.90;5.40;;;;;;;;;;5056480;28;20921;-79
2023/04/04 17:56:22;;;;;;;5.30;4.90;;;;;;;;;;5056206;28;20523;-77
2023/04/04 17:58:49;;;;;;;6.57;5.60;;;;;;;;;;5055696;28;20464;-77
2023/04/04 18:01:21;;;;;;;5.63;5.23;;;;;;;;;;5055219;28;20525;-80
2023/04/04 18:03:48;;;;;;;5.10;4.70;;;;;;;;;;5054480;28;20438;-78
2023/04/04 18:06:16;;;;;;;6.00;5.20;;;;;;;;;;5056499;28;20651;-78
2023/04/04 18:08:43;;;;;;;5.50;5.00;;;;;;;;;;5055323;28;20549;-78
2023/04/04 18:11:15;;;;;;;5.37;4.97;;;;;;;;;;5060977;28;20531;-77
2023/04/04 18:13:44;;;;;;;5.60;5.20;;;;;;;;;;5054878;28;20536;-78
2023/04/04 18:16:12;;;;;;;6.33;5.73;;;;;;;;;;5053613;28;20474;-78
2023/04/04 18:18:39;;;;;;;5.83;5.33;;;;;;;;;;5037503;28;20438;-78
2023/04/04 18:21:07;;;;;;;5.90;5.30;;;;;;;;;;5033906;28;20445;-79
2023/04/04 18:26:33;;;;;;;7.70;5.63;;;;;;;;;;5031866;28;20474;-79